Terminal Aerodrome Forecast
Issued by NWS

Current Version | Previous Version | Text Only | Print | Product List | Glossary On
Versions: 1 2 3 4 5 6 7 8 9 10 11 12 13 14 15 16 17 18 19 20 21 22 23 24 25 26 27 28
717
FTUS43 KDMX 251141
TAFFOD
TAF
KFOD 251141Z 2512/2612 17006KT P6SM VCSH OVC090
      TEMPO 2512/2515 2SM -TSRA BKN005 OVC010CB
     FM251500 15012KT P6SM VCTS OVC040CB
     FM251700 17015KT P6SM SCT080
     FM260200 20004KT P6SM VCTS BKN035CB OVC120
      TEMPO 2602/2604 2SM -TSRA OVC025CB
     FM260500 18004KT P6SM SCT025 BKN080=

USA.gov is the U.S. government's official web portal to all federal, state and local government web resources and services.